• Join FlightAware (Why Join?)
  • Login
  • US Flag 
01:30PM EDT


 

Airport Tracker/Info


-or-


 

Live Flight TrackerFlight Track Log ✈ TAM3882 ✈ 01-Jul-2013 ✈ SBBR / BSB - SBTE / THE

Flight Track Log - Related Links

Times and Time Zones

All times are in EDT time to prevent confusion due to time zone crossing. See the TAM3882 flight status page for this flight to view local times or setup timezone preferences in your user account.

Time Position Orientation Groundspeed Altitude Reporting Facility
EDT Latitude Longitude Course Direction KTS MPH feet Rate Location/Type
10:53PM -13.1467 -46.5926 25° Northeast  Level Estimated
10:54PM -13.0496 -46.5460 25° Northeast  Level Estimated
10:55PM -12.9525 -46.4995 25° Northeast  Level Estimated
10:56PM -12.8553 -46.4530 25° Northeast  Level Estimated
10:57PM -12.7582 -46.4066 25° Northeast  Level Estimated
10:58PM -12.6610 -46.3601 25° Northeast  Level Estimated
10:59PM -12.5638 -46.3137 25° Northeast  Level Estimated
11:00PM -12.4667 -46.2674 25° Northeast  Level Estimated
11:01PM -12.3695 -46.2211 25° Northeast  Level Estimated
11:02PM -12.2723 -46.1748 25° Northeast  Level Estimated
11:03PM -12.1751 -46.1285 25° Northeast  Level Estimated
11:04PM -12.0779 -46.0823 25° Northeast  Level Estimated
11:05PM -11.9807 -46.0361 25° Northeast  Level Estimated
11:06PM -11.8834 -45.9900 25° Northeast  Level Estimated
11:07PM -11.7862 -45.9439 25° Northeast  Level Estimated
11:08PM -11.6890 -45.8978 25° Northeast  Level Estimated
11:09PM -11.5917 -45.8517 25° Northeast  Level Estimated
11:10PM -11.4945 -45.8057 25° Northeast  Level Estimated
11:11PM -11.3972 -45.7597 25° Northeast  Level Estimated
11:12PM -11.3000 -45.7138 25° Northeast  Level Estimated
11:13PM -11.2027 -45.6678 25° Northeast  Level Estimated
11:14PM -11.1054 -45.6219 25° Northeast  Level Estimated
11:15PM -11.0081 -45.5761 25° Northeast  Level Estimated
11:16PM -10.9108 -45.5303 25° Northeast  Level Estimated
11:17PM -10.8135 -45.4845 25° Northeast  Level Estimated
11:18PM -10.7162 -45.4387 25° Northeast  Level Estimated
11:19PM -10.6189 -45.3929 25° Northeast  Level Estimated
11:20PM -10.5216 -45.3472 25° Northeast  Level Estimated
11:21PM -10.4243 -45.3015 25° Northeast  Level Estimated
11:22PM -10.3269 -45.2559 25° Northeast  Level Estimated
11:23PM -10.2296 -45.2102 25° Northeast  Level Estimated
11:24PM -10.1322 -45.1646 25° Northeast  Level Estimated
11:25PM -10.0349 -45.1191 25° Northeast  Level Estimated
11:26PM -9.9375 -45.0735 25° Northeast  Level Estimated
11:27PM -9.8402 -45.0280 25° Northeast  Level Estimated
11:28PM -9.7428 -44.9825 25° Northeast  Level Estimated
11:29PM -9.6454 -44.9370 25° Northeast  Level Estimated
11:30PM -9.5480 -44.8916 25° Northeast  Level Estimated
11:31PM -9.4507 -44.8462 25° Northeast  Level Estimated
11:32PM -9.3533 -44.8008 25° Northeast  Level Estimated
11:33PM -9.2559 -44.7554 25° Northeast  Level Estimated
11:34PM -9.1585 -44.7101 25° Northeast  Level Estimated
11:35PM -9.0610 -44.6648 25° Northeast  Level Estimated
11:36PM -8.9636 -44.6195 25° Northeast  Level Estimated
11:37PM -8.8662 -44.5742 25° Northeast  Level Estimated
11:38PM -8.7688 -44.5290 25° Northeast  Level Estimated
11:39PM -8.6713 -44.4838 25° Northeast  Level Estimated
11:40PM -8.5739 -44.4386 25° Northeast  Level Estimated
11:41PM -8.4765 -44.3934 25° Northeast  Level Estimated
11:42PM -8.3790 -44.3483 25° Northeast  Level Estimated
11:43PM -8.2816 -44.3032 25° Northeast  Level Estimated
11:44PM -8.1841 -44.2580 25° Northeast  Level Estimated
11:45PM -8.0866 -44.2130 25° Northeast  Level Estimated
11:46PM -7.9892 -44.1679 25° Northeast  Level Estimated
11:47PM -7.8917 -44.1229 25° Northeast  Level Estimated
11:48PM -7.7942 -44.0779 25° Northeast  Level Estimated
11:49PM -7.6967 -44.0329 25° Northeast  Level Estimated
11:50PM -7.5992 -43.9879 25° Northeast  Level Estimated
11:51PM -7.5018 -43.9429 25° Northeast  Level Estimated
11:52PM -7.4043 -43.8980 25° Northeast  Level Estimated
11:53PM -7.3068 -43.8531 25° Northeast  Level Estimated
11:54PM -7.2092 -43.8082 25° Northeast  Level Estimated
11:55PM -7.1117 -43.7633 25° Northeast  Level Estimated
11:56PM -7.0142 -43.7185 25° Northeast  Level Estimated
11:57PM -6.9167 -43.6736 25° Northeast  Level Estimated
11:58PM -6.8192 -43.6288 25° Northeast  Level Estimated
11:59PM -6.7217 -43.5840 25° Northeast  Level Estimated
12:00AM -6.6241 -43.5392 25° Northeast  Level Estimated
12:01AM -6.5266 -43.4945 25° Northeast  Level Estimated
12:02AM -6.4290 -43.4497 25° Northeast  Level Estimated
12:03AM -6.3315 -43.4050 25° Northeast  Level Estimated
12:04AM -6.2340 -43.3603 24° Northeast  Level Estimated
12:05AM -6.1364 -43.3156 24° Northeast  Level Estimated
12:06AM -6.0389 -43.2709 24° Northeast  Level Estimated
12:07AM -5.9413 -43.2262 24° Northeast  Level Estimated
12:08AM -5.8437 -43.1816 24° Northeast  Level Estimated
12:09AM -5.7462 -43.1370 24° Northeast  Level Estimated
12:10AM -5.6486 -43.0923 24° Northeast  Level Estimated
12:11AM -5.5510 -43.0477 24° Northeast  Level Estimated
12:12AM -5.4535 -43.0031 24° Northeast  Level Estimated
12:13AM -5.3559 -42.9586 24° Northeast  Level Estimated
12:14AM -5.2583 -42.9140 24° Northeast  Level Estimated
12:15AM -5.1607 -42.8695 24° Northeast  Level Estimated
12:16AM -5.0631 -42.8249 24° Northeast  Level Estimated
12:17AM -5.0599 -42.8235 24° Northeast  Level Estimated
12:18AM -5.0599 -42.8235 135° Southeast  Level Estimated
12:19AM -5.0599 -42.8235 135° Southeast  Level Estimated
12:20AM -5.0599 -42.8235 135° Southeast  Level Estimated
12:21AM -5.0599 -42.8235 135° Southeast  Level Estimated
12:22AM -5.0599 -42.8235 135° Southeast  Level Estimated
12:23AM -5.0599 -42.8235 135° Southeast  Level Estimated
12:24AM -5.0599 -42.8235 135° Southeast  Level Estimated
12:25AM -5.0599 -42.8235 135° Southeast  Level Estimated
12:26AM -5.0599 -42.8235 135° Southeast  Level Estimated